createdAt,value
2022-12-15T00:04:59.631Z,100.00
2022-12-15T00:10:19.801Z,100.00
2022-12-15T00:15:39.966Z,100.00
2022-12-15T00:21:01.544Z,100.00
2022-12-15T00:26:22.337Z,99.60
2022-12-15T00:31:42.378Z,96.89
2022-12-15T00:37:04.026Z,97.45
2022-12-15T00:42:06.958Z,98.87
2022-12-15T00:47:09.684Z,99.58
2022-12-15T00:52:32.012Z,98.02
2022-12-15T00:57:52.591Z,96.44
2022-12-15T01:03:12.778Z,95.83
2022-12-15T01:08:34.231Z,95.42
2022-12-15T01:13:54.823Z,94.01
2022-12-15T01:19:15.459Z,92.62
2022-12-15T01:24:19.575Z,93.77
2022-12-15T01:29:24.306Z,95.06
2022-12-15T01:34:29.985Z,95.45
2022-12-15T01:39:48.007Z,95.62
2022-12-15T01:44:52.754Z,95.46
2022-12-15T01:49:56.130Z,96.71
2022-12-15T01:55:00.528Z,96.31
2022-12-15T02:00:08.322Z,97.54
2022-12-15T02:05:11.588Z,97.46
2022-12-15T02:10:15.861Z,97.87
2022-12-15T02:15:22.606Z,98.53
2022-12-15T02:20:41.285Z,98.03
2022-12-15T02:26:01.423Z,98.21
2022-12-15T02:31:26.817Z,98.58
2022-12-15T02:36:36.699Z,99.59
2022-12-15T02:41:42.862Z,98.61
2022-12-15T02:47:05.892Z,99.05
2022-12-15T02:52:22.410Z,98.77
2022-12-15T02:57:32.931Z,99.08
2022-12-15T03:02:41.300Z,99.71
2022-12-15T03:07:45.010Z,100.00
2022-12-15T03:12:54.408Z,100.00
2022-12-15T03:17:58.605Z,100.00
2022-12-15T03:23:01.870Z,100.00
2022-12-15T03:28:04.763Z,100.00
2022-12-15T03:33:08.861Z,100.00
2022-12-15T03:38:11.679Z,100.00
2022-12-15T03:43:14.396Z,100.00
2022-12-15T03:48:18.571Z,100.00
2022-12-15T03:53:21.429Z,100.00
2022-12-15T03:58:24.633Z,100.00
2022-12-15T04:03:29.666Z,100.00
2022-12-15T04:08:32.929Z,100.00
2022-12-15T04:13:35.699Z,100.00
2022-12-15T04:18:39.823Z,100.00
2022-12-15T04:23:59.864Z,100.00
2022-12-15T04:29:19.998Z,100.00
2022-12-15T04:34:43.223Z,100.00
2022-12-15T04:40:07.882Z,100.00
2022-12-15T04:45:29.666Z,100.00
2022-12-15T04:50:51.249Z,100.00
2022-12-15T04:56:16.513Z,100.00
2022-12-15T05:01:38.864Z,100.00
2022-12-15T05:07:00.360Z,100.00
2022-12-15T05:12:20.678Z,100.00
2022-12-15T05:17:41.874Z,100.00
2022-12-15T05:23:03.334Z,100.00
2022-12-15T05:28:25.534Z,100.00
2022-12-15T05:33:28.689Z,100.00
2022-12-15T05:38:33.116Z,100.00
2022-12-15T05:43:35.898Z,100.00
2022-12-15T05:48:39.104Z,100.00
2022-12-15T05:53:43.756Z,100.00
2022-12-15T05:58:46.570Z,100.00
2022-12-15T06:03:49.856Z,100.00
2022-12-15T06:09:18.322Z,100.00
2022-12-15T06:14:31.286Z,100.00
2022-12-15T06:19:35.821Z,100.00
2022-12-15T06:24:57.409Z,100.00
2022-12-15T06:30:12.090Z,100.00
2022-12-15T06:35:15.362Z,100.00
2022-12-15T06:40:24.599Z,100.00
2022-12-15T06:45:27.910Z,100.00
2022-12-15T06:50:35.677Z,100.00
2022-12-15T06:55:51.208Z,100.00
2022-12-15T07:01:19.002Z,100.00
2022-12-15T07:06:39.554Z,100.00
2022-12-15T07:12:18.615Z,100.00
2022-12-15T07:17:21.428Z,100.00
2022-12-15T07:22:25.313Z,100.00
2022-12-15T07:27:29.644Z,100.00
2022-12-15T07:32:32.468Z,100.00
2022-12-15T07:37:36.978Z,100.00
2022-12-15T07:42:41.328Z,100.00
2022-12-15T07:47:44.169Z,100.00
2022-12-15T07:52:47.477Z,100.00
2022-12-15T07:57:51.670Z,100.00
2022-12-15T08:02:57.638Z,100.00
2022-12-15T08:08:00.797Z,100.00
2022-12-15T08:13:04.942Z,100.00
2022-12-15T08:18:09.038Z,100.00
2022-12-15T08:23:11.844Z,100.00
2022-12-15T08:28:16.519Z,100.00
2022-12-15T08:33:19.291Z,100.00
2022-12-15T08:38:22.111Z,100.00
2022-12-15T08:43:35.585Z,100.00
2022-12-15T08:48:38.469Z,100.00
2022-12-15T08:53:41.564Z,100.00
2022-12-15T08:58:46.555Z,99.88
2022-12-15T09:03:50.757Z,99.70
2022-12-15T09:08:56.688Z,97.73
2022-12-15T09:14:01.094Z,97.36
2022-12-15T09:19:04.488Z,100.00
2022-12-15T09:24:07.760Z,98.65
2022-12-15T09:29:14.290Z,98.23
2022-12-15T09:34:17.066Z,99.06
2022-12-15T09:39:21.282Z,97.14
2022-12-15T09:44:27.333Z,94.24
2022-12-15T09:49:53.270Z,91.37
2022-12-15T09:54:56.783Z,94.88
2022-12-15T10:00:11.469Z,99.18
2022-12-15T10:05:38.120Z,100.00
2022-12-15T10:10:55.609Z,100.00
2022-12-15T10:16:04.182Z,100.00
2022-12-15T10:21:14.102Z,100.00
2022-12-15T10:26:21.521Z,100.00
2022-12-15T10:31:35.987Z,100.00
2022-12-15T10:36:38.867Z,100.00
2022-12-15T10:41:41.629Z,100.00
2022-12-15T10:46:46.288Z,99.77
2022-12-15T10:51:56.011Z,95.05
2022-12-15T10:57:01.763Z,94.32
2022-12-15T11:07:39.517Z,93.60
2022-12-15T11:13:01.697Z,93.48
2022-12-15T11:18:11.252Z,95.86
2022-12-15T11:23:22.401Z,94.66
2022-12-15T11:28:33.942Z,94.76
2022-12-15T11:33:38.931Z,91.02
2022-12-15T11:38:49.885Z,93.44
2022-12-15T11:44:10.941Z,93.71
2022-12-15T11:49:40.741Z,94.85
2022-12-15T11:54:54.842Z,96.37
2022-12-15T12:00:06.235Z,93.07
2022-12-15T12:05:38.910Z,93.35
2022-12-15T12:10:54.681Z,89.47
2022-12-15T12:16:18.580Z,90.01
2022-12-15T12:21:25.481Z,92.07
2022-12-15T12:26:36.669Z,94.69
2022-12-15T12:31:50.724Z,94.87
2022-12-15T12:36:56.240Z,95.48
2022-12-15T12:42:08.685Z,93.62
2022-12-15T12:47:18.403Z,92.24
2022-12-15T12:52:25.253Z,94.45
2022-12-15T12:57:37.114Z,93.84
2022-12-15T13:03:03.095Z,94.33
2022-12-15T13:08:45.718Z,92.02
2022-12-15T13:13:55.687Z,90.74
2022-12-15T13:19:05.213Z,89.99
2022-12-15T13:24:32.292Z,90.84
2022-12-15T13:29:56.783Z,92.57
2022-12-15T13:35:16.075Z,91.99
2022-12-15T13:40:34.931Z,90.31
2022-12-15T13:45:54.663Z,91.69
2022-12-15T13:51:04.383Z,93.79
2022-12-15T13:56:23.612Z,92.35
2022-12-15T14:01:32.607Z,92.53
2022-12-15T14:06:39.607Z,91.83
2022-12-15T14:11:53.937Z,91.67
2022-12-15T14:17:03.127Z,94.11
2022-12-15T14:22:26.722Z,94.28
2022-12-15T14:27:34.152Z,94.05
2022-12-15T14:32:40.198Z,94.94
2022-12-15T14:37:43.755Z,96.40
2022-12-15T14:42:47.944Z,95.94
2022-12-15T14:48:30.353Z,96.51
2022-12-15T14:53:23.974Z,95.43
2022-12-15T14:58:33.405Z,94.78
2022-12-15T15:03:40.044Z,93.30
2022-12-15T15:08:47.433Z,94.48
2022-12-15T15:13:55.979Z,95.04
2022-12-15T15:19:04.476Z,95.60
2022-12-15T15:24:24.856Z,95.19
2022-12-15T15:29:39.724Z,94.05
2022-12-15T15:34:44.949Z,94.06
2022-12-15T15:39:49.815Z,94.38
2022-12-15T15:44:54.773Z,94.49
2022-12-15T15:50:00.947Z,95.09
2022-12-15T15:55:03.895Z,93.92
2022-12-15T16:00:21.404Z,93.48
2022-12-15T16:05:26.897Z,94.84
2022-12-15T16:10:30.262Z,95.02
2022-12-15T16:15:33.267Z,95.20
2022-12-15T16:20:38.465Z,93.82
2022-12-15T16:25:50.316Z,94.09
2022-12-15T16:30:54.127Z,95.76
2022-12-15T16:35:58.975Z,96.01
2022-12-15T16:41:08.123Z,96.57
2022-12-15T16:46:12.635Z,95.76
2022-12-15T16:51:28.133Z,96.81
2022-12-15T16:56:31.098Z,97.48
2022-12-15T17:01:39.698Z,96.90
2022-12-15T17:06:45.482Z,98.43
2022-12-15T17:11:52.114Z,98.10
2022-12-15T17:16:54.940Z,99.10
2022-12-15T17:21:59.134Z,100.00
2022-12-15T17:27:06.582Z,99.62
2022-12-15T17:32:13.546Z,98.20
2022-12-15T17:37:18.068Z,98.47
2022-12-15T17:42:22.497Z,97.74
2022-12-15T17:47:25.487Z,95.07
2022-12-15T17:52:34.335Z,96.08
2022-12-15T17:57:37.309Z,96.28
2022-12-15T18:02:40.297Z,95.80
2022-12-15T18:07:45.029Z,96.70
2022-12-15T18:12:47.917Z,97.81
2022-12-15T18:17:51.250Z,96.20
2022-12-15T18:22:55.481Z,96.71
2022-12-15T18:27:59.308Z,96.50
2022-12-15T18:33:02.186Z,97.32
2022-12-15T18:38:15.316Z,96.07
2022-12-15T18:43:19.725Z,96.60
2022-12-15T18:48:24.583Z,97.79
2022-12-15T18:53:31.397Z,99.10
2022-12-15T18:58:36.576Z,99.36
2022-12-15T19:03:41.022Z,98.77
2022-12-15T19:08:45.313Z,98.42
2022-12-15T19:13:48.137Z,99.26
2022-12-15T19:19:11.296Z,98.04
2022-12-15T19:24:45.157Z,96.83
2022-12-15T19:29:48.536Z,96.08
2022-12-15T19:34:51.407Z,93.84
2022-12-15T19:39:57.856Z,92.83
2022-12-15T19:45:01.425Z,94.25
2022-12-15T19:50:04.629Z,94.86
2022-12-15T19:55:15.090Z,95.04
2022-12-15T20:00:21.739Z,95.89
2022-12-15T20:05:25.832Z,95.17
2022-12-15T20:10:32.486Z,93.13
2022-12-15T20:15:35.462Z,94.03
2022-12-15T20:20:39.165Z,95.06
2022-12-15T20:25:44.056Z,95.79
2022-12-15T20:30:47.543Z,95.29
2022-12-15T20:35:51.367Z,94.90
2022-12-15T20:40:56.496Z,93.56
2022-12-15T20:46:04.023Z,93.77
2022-12-15T20:51:09.778Z,92.51
2022-12-15T20:56:14.729Z,94.91
2022-12-15T21:01:23.465Z,96.84
2022-12-15T21:06:27.476Z,100.00
2022-12-15T21:11:34.056Z,98.91
2022-12-15T21:16:36.921Z,98.66
2022-12-15T21:21:43.045Z,96.94
2022-12-15T21:26:47.688Z,98.02
2022-12-15T21:31:51.065Z,100.00
2022-12-15T21:36:55.093Z,100.00
2022-12-15T21:42:02.640Z,100.00
2022-12-15T21:47:22.120Z,100.00
2022-12-15T21:52:28.333Z,100.00
2022-12-15T21:57:32.494Z,100.00
2022-12-15T22:02:35.277Z,100.00
2022-12-15T22:07:38.152Z,100.00
2022-12-15T22:12:44.961Z,100.00
2022-12-15T22:17:48.085Z,100.00
2022-12-15T22:22:51.667Z,100.00
2022-12-15T22:27:55.859Z,100.00
2022-12-15T22:32:58.743Z,100.00
2022-12-15T22:38:01.799Z,100.00
2022-12-15T22:43:15.586Z,100.00
2022-12-15T22:48:20.363Z,100.00
2022-12-15T22:53:23.971Z,100.00
2022-12-15T22:58:33.417Z,100.00
2022-12-15T23:03:36.620Z,100.00
2022-12-15T23:08:39.477Z,100.00
2022-12-15T23:13:43.797Z,100.00
2022-12-15T23:18:46.984Z,100.00
2022-12-15T23:23:50.134Z,98.91
2022-12-15T23:28:55.459Z,97.93
2022-12-15T23:33:58.359Z,98.19
2022-12-15T23:39:01.254Z,95.77
2022-12-15T23:44:07.705Z,94.23
2022-12-15T23:49:11.159Z,94.87
2022-12-15T23:54:14.172Z,95.04
2022-12-15T23:59:18.593Z,95.09
